createdAt,value
2019-04-05T00:05:08.741Z,954.5
2019-04-05T00:15:16.511Z,954.3
2019-04-05T00:25:19.971Z,954.8
2019-04-05T00:35:23.412Z,947.6
2019-04-05T00:45:29.149Z,955
2019-04-05T00:55:32.611Z,954.8
2019-04-05T01:05:36.112Z,955.2
2019-04-05T01:15:41.703Z,954.7
2019-04-05T01:25:45.148Z,955
2019-04-05T01:35:48.592Z,954.7
2019-04-05T01:45:54.642Z,954.5
2019-04-05T01:55:58.078Z,954.5
2019-04-05T02:06:01.481Z,954.5
2019-04-05T02:16:07.316Z,954.3
2019-04-05T02:26:10.731Z,954.7
2019-04-05T02:36:14.246Z,954.6
2019-04-05T02:46:24.769Z,954.3
2019-04-05T02:56:28.186Z,954.3
2019-04-05T03:06:32.656Z,954.2
2019-04-05T03:16:42.428Z,954.3
2019-04-05T03:26:45.903Z,954.4
2019-04-05T03:36:52.555Z,954.5
2019-04-05T03:46:58.450Z,954.7
2019-04-05T03:57:01.905Z,954.7
2019-04-05T04:07:05.372Z,954.9
2019-04-05T04:17:13.948Z,947.7
2019-04-05T04:27:17.458Z,947.8
2019-04-05T04:37:20.893Z,954.6
2019-04-05T04:47:27.819Z,947.4
2019-04-05T04:57:31.260Z,947.7
2019-04-05T05:07:34.697Z,947.7
2019-04-05T05:17:39.444Z,947.8
2019-04-05T05:27:42.900Z,955
2019-04-05T05:37:46.337Z,947.8
2019-04-05T05:47:52.874Z,955.1
2019-04-05T05:57:59.103Z,954.9
2019-04-05T06:08:02.492Z,954.8
2019-04-05T06:18:05.919Z,954.8
2019-04-05T06:28:09.329Z,954.9
2019-04-05T06:38:12.746Z,954.6
2019-04-05T06:48:20.214Z,954.3
2019-04-05T06:58:29.848Z,954.1
2019-04-05T07:08:33.296Z,954
2019-04-05T07:18:36.906Z,953.8
2019-04-05T07:28:40.353Z,953.4
2019-04-05T07:38:43.757Z,953.6
2019-04-05T07:48:47.214Z,953.4
2019-04-05T07:58:50.651Z,953.7
2019-04-05T08:08:54.064Z,953
2019-04-05T08:18:58.741Z,952.7
2019-04-05T08:29:02.170Z,952.9
2019-04-05T08:39:06.624Z,953.4
2019-04-05T08:49:12.284Z,953
2019-04-05T08:59:15.748Z,952.6
2019-04-05T09:09:19.185Z,952.3
2019-04-05T09:19:24.481Z,952.2
2019-04-05T09:29:27.932Z,952.2
2019-04-05T09:39:31.351Z,951.5
2019-04-05T09:49:37.641Z,950.7
2019-04-05T09:59:41.082Z,950.7
2019-04-05T10:09:44.534Z,950.4
2019-04-05T10:19:50.972Z,950.1
2019-04-05T10:29:54.428Z,948.3
2019-04-05T10:39:57.838Z,948
2019-04-05T10:50:04.114Z,948
2019-04-05T11:00:07.521Z,948.1
2019-04-05T11:10:10.973Z,947.8
2019-04-05T11:20:22.897Z,948.3
2019-04-05T11:30:27.361Z,948.1
2019-04-05T11:40:30.758Z,947.8
2019-04-05T11:50:35.461Z,947.9
2019-04-05T12:00:38.902Z,947.7
2019-04-05T12:10:42.353Z,947.5
2019-04-05T12:21:05.218Z,947.5
2019-04-05T12:31:09.109Z,947.4
2019-04-05T12:41:12.534Z,947
2019-04-05T12:51:16.711Z,946.8
2019-04-05T13:01:20.150Z,946.9
2019-04-05T13:11:27.374Z,946.5
2019-04-05T13:21:33.516Z,946.3
2019-04-05T13:31:36.946Z,946.4
2019-04-05T13:41:40.373Z,946.4
2019-04-05T13:51:43.801Z,946.1
2019-04-05T14:01:51.836Z,953
2019-04-05T14:11:55.266Z,945.6
2019-04-05T14:22:09.602Z,946
2019-04-05T14:32:22.415Z,945.9
2019-04-05T14:42:25.853Z,946
2019-04-05T14:52:32.105Z,946
2019-04-05T15:02:35.555Z,946
2019-04-05T15:12:38.995Z,946
2019-04-05T15:22:42.642Z,946.2
2019-04-05T15:32:46.088Z,946.2
2019-04-05T15:42:49.541Z,945.8
2019-04-05T15:52:52.955Z,946.1
2019-04-05T16:02:56.385Z,946.4
2019-04-05T16:12:59.807Z,946.2
2019-04-05T16:23:03.267Z,946.5
2019-04-05T16:33:06.712Z,946.6
2019-04-05T16:43:10.171Z,946.6
2019-04-05T16:53:13.595Z,946.7
2019-04-05T17:03:17.038Z,946.7
2019-04-05T17:13:20.486Z,946.9
2019-04-05T17:23:23.930Z,947.1
2019-04-05T17:33:27.386Z,947
2019-04-05T17:43:31.790Z,947.1
2019-04-05T17:53:35.249Z,947.3
2019-04-05T18:03:38.707Z,947.2
2019-04-05T18:13:42.152Z,947.5
2019-04-05T18:23:45.593Z,947.7
2019-04-05T18:33:49.038Z,947.8
2019-04-05T18:43:52.497Z,948
2019-04-05T18:53:55.914Z,948.3
2019-04-05T19:03:59.423Z,948.8
2019-04-05T19:14:02.913Z,949
2019-04-05T19:24:06.362Z,949.2
2019-04-05T19:58:16.711Z,949.8
2019-04-05T20:08:20.157Z,950.4
2019-04-05T20:18:23.656Z,950.5
2019-04-05T20:28:27.091Z,950.9
2019-04-05T20:38:30.560Z,950.9
2019-04-05T20:48:33.990Z,951.1
2019-04-05T20:58:37.438Z,951.1
2019-04-05T21:08:40.874Z,951.1
2019-04-05T21:18:44.313Z,951.8
2019-04-05T21:28:47.770Z,951.8
2019-04-05T21:38:51.228Z,952
2019-04-05T21:48:54.681Z,952.3
2019-04-05T21:58:58.129Z,952.1
2019-04-05T22:09:01.571Z,952.2
2019-04-05T22:19:05.015Z,952.5
2019-04-05T22:29:08.453Z,952.9
2019-04-05T22:39:11.874Z,952.8
2019-04-05T22:49:15.339Z,953.3
2019-04-05T22:59:18.801Z,953.3
2019-04-05T23:09:22.231Z,953.2
2019-04-05T23:19:25.719Z,953.2
2019-04-05T23:29:29.159Z,953.7
2019-04-05T23:39:32.600Z,953.7
2019-04-05T23:49:36.057Z,954
2019-04-05T23:59:39.475Z,954.2
